Time;durP1;ratioP1;P1;durP2;ratioP2;P2;SDS_P1;SDS_P2;PMS_P1;PMS_P2;Temp;Humidity;BMP_temperature;BMP_pressure;BME280_temperature;BME280_humidity;BME280_pressure;Samples;Min_cycle;Max_cycle;Signal;HPM_P1;HPM_P2
2023/03/18 00:00:40;;;;;;;28.40;15.63;;;;;;;;;;5039763;28;20404;-83
2023/03/18 00:03:06;;;;;;;28.60;15.15;;;;;;;;;;5039607;28;20052;-82
2023/03/18 00:05:33;;;;;;;26.83;15.55;;;;;;;;;;5039495;28;20400;-83
2023/03/18 00:08:00;;;;;;;26.67;14.75;;;;;;;;;;5039735;28;20029;-83
2023/03/18 00:10:27;;;;;;;27.80;14.73;;;;;;;;;;5039653;28;20029;-83
2023/03/18 00:12:53;;;;;;;30.75;16.95;;;;;;;;;;5039813;28;20219;-83
2023/03/18 00:15:19;;;;;;;35.83;17.35;;;;;;;;;;5039390;28;20038;-83
2023/03/18 00:18:04;;;;;;;31.73;17.20;;;;;;;;;;5039275;28;20025;-84
2023/03/18 00:20:37;;;;;;;31.50;16.77;;;;;;;;;;5039712;28;20163;-83
2023/03/18 00:23:04;;;;;;;31.45;16.52;;;;;;;;;;5039625;28;20311;-83
2023/03/18 00:25:30;;;;;;;29.13;15.55;;;;;;;;;;5039284;28;20021;-83
2023/03/18 00:27:56;;;;;;;28.30;15.07;;;;;;;;;;5038942;28;20037;-83
2023/03/18 00:30:22;;;;;;;26.77;14.60;;;;;;;;;;5037605;28;20029;-84
2023/03/18 00:32:48;;;;;;;26.45;13.60;;;;;;;;;;5038790;28;20036;-83
2023/03/18 00:35:15;;;;;;;22.05;13.50;;;;;;;;;;5039210;28;20029;-83
2023/03/18 00:37:42;;;;;;;24.80;13.77;;;;;;;;;;5038987;28;20084;-82
2023/03/18 00:40:09;;;;;;;23.60;12.45;;;;;;;;;;5038289;28;20026;-83
2023/03/18 00:42:38;;;;;;;23.60;12.30;;;;;;;;;;5037821;28;20383;-83
2023/03/18 00:45:06;;;;;;;21.60;12.15;;;;;;;;;;5039147;28;20033;-83
2023/03/18 00:53:40;;;;;;;22.75;11.52;;;;;;;;;;5039158;28;20041;-83
2023/03/18 00:56:07;;;;;;;23.13;12.20;;;;;;;;;;5037702;28;20033;-84
2023/03/18 00:58:33;;;;;;;24.27;13.13;;;;;;;;;;5038737;28;20037;-84
2023/03/18 01:01:00;;;;;;;22.08;13.60;;;;;;;;;;5038560;28;20021;-84
2023/03/18 01:03:26;;;;;;;27.45;15.52;;;;;;;;;;5038609;28;20025;-85
2023/03/18 01:05:52;;;;;;;29.25;15.48;;;;;;;;;;5037632;28;20025;-85
2023/03/18 01:08:20;;;;;;;29.35;17.20;;;;;;;;;;5038777;28;20060;-84
2023/03/18 01:10:47;;;;;;;30.42;16.95;;;;;;;;;;5038522;28;20036;-84
2023/03/18 01:13:13;;;;;;;34.65;17.95;;;;;;;;;;5037347;28;20490;-84
2023/03/18 01:15:40;;;;;;;30.15;16.85;;;;;;;;;;5038547;28;20026;-85
2023/03/18 01:18:07;;;;;;;30.23;17.23;;;;;;;;;;5038038;28;20021;-85
2023/03/18 01:20:34;;;;;;;34.75;18.35;;;;;;;;;;5038232;28;20040;-85
2023/03/18 01:23:00;;;;;;;36.92;19.27;;;;;;;;;;5038115;28;20017;-85
2023/03/18 01:25:27;;;;;;;35.08;19.65;;;;;;;;;;5038070;28;20410;-85
2023/03/18 01:27:53;;;;;;;33.28;19.25;;;;;;;;;;5038696;28;20033;-85
2023/03/18 01:30:19;;;;;;;41.60;21.42;;;;;;;;;;5037041;28;20120;-84
2023/03/18 01:35:54;;;;;;;43.53;22.25;;;;;;;;;;5038377;28;20071;-85
2023/03/18 01:38:20;;;;;;;46.78;24.60;;;;;;;;;;5037982;28;20029;-84
2023/03/18 01:40:46;;;;;;;47.90;26.20;;;;;;;;;;5037042;28;20305;-85
2023/03/18 01:43:20;;;;;;;52.22;27.50;;;;;;;;;;5037612;28;20327;-85
2023/03/18 01:45:48;;;;;;;52.17;28.55;;;;;;;;;;5036891;28;20034;-85
2023/03/18 01:48:16;;;;;;;53.08;29.83;;;;;;;;;;5038308;28;20136;-85
2023/03/18 01:50:43;;;;;;;50.88;29.60;;;;;;;;;;5037895;28;20442;-84
2023/03/18 01:53:11;;;;;;;54.30;30.27;;;;;;;;;;5036807;28;20416;-84
2023/03/18 01:55:38;;;;;;;57.00;30.48;;;;;;;;;;5038109;28;20028;-85
2023/03/18 01:58:10;;;;;;;52.45;29.98;;;;;;;;;;5036704;28;20025;-85
2023/03/18 02:00:38;;;;;;;61.25;33.85;;;;;;;;;;5037923;28;20138;-83
2023/03/18 02:03:23;;;;;;;54.40;32.67;;;;;;;;;;5037858;28;20072;-84
2023/03/18 02:05:50;;;;;;;64.55;33.92;;;;;;;;;;5037482;28;20025;-83
2023/03/18 02:08:16;;;;;;;60.95;34.75;;;;;;;;;;5037415;28;20037;-84
2023/03/18 02:10:44;;;;;;;62.00;34.50;;;;;;;;;;5037743;28;20072;-84
2023/03/18 02:13:11;;;;;;;67.03;33.67;;;;;;;;;;5037213;28;20030;-84
2023/03/18 02:15:39;;;;;;;59.97;32.90;;;;;;;;;;5036430;28;20060;-84
2023/03/18 02:18:11;;;;;;;55.30;30.48;;;;;;;;;;5037124;28;20431;-83
2023/03/18 02:20:56;;;;;;;50.75;28.00;;;;;;;;;;5037746;28;20071;-85
2023/03/18 02:23:32;;;;;;;50.85;26.02;;;;;;;;;;5036481;28;20034;-84
2023/03/18 02:26:21;;;;;;;44.60;24.40;;;;;;;;;;5037663;28;20044;-85
2023/03/18 02:28:50;;;;;;;40.47;22.40;;;;;;;;;;4999451;28;20038;-85
2023/03/18 02:31:16;;;;;;;40.65;21.98;;;;;;;;;;4999460;28;20066;-84
2023/03/18 02:36:49;;;;;;;31.50;17.65;;;;;;;;;;5016083;28;20061;-85
2023/03/18 02:39:15;;;;;;;31.85;18.83;;;;;;;;;;5015614;28;20062;-84
2023/03/18 02:41:42;;;;;;;36.03;19.33;;;;;;;;;;5015843;28;20033;-85
2023/03/18 02:44:09;;;;;;;31.52;18.33;;;;;;;;;;5015834;28;20045;-85
2023/03/18 02:46:48;;;;;;;31.27;18.33;;;;;;;;;;5015819;28;20030;-85
2023/03/18 02:49:14;;;;;;;31.08;16.98;;;;;;;;;;5015708;28;20030;-85
2023/03/18 02:51:40;;;;;;;32.97;17.70;;;;;;;;;;5015802;28;20451;-86
2023/03/18 02:54:09;;;;;;;30.20;16.23;;;;;;;;;;5000078;28;20298;-85
2023/03/18 02:56:35;;;;;;;28.08;16.65;;;;;;;;;;5002964;28;20516;-85
2023/03/18 02:59:01;;;;;;;30.92;17.08;;;;;;;;;;5002555;28;20048;-85
2023/03/18 03:01:28;;;;;;;30.05;17.30;;;;;;;;;;5019638;28;20433;-84
2023/03/18 03:04:13;;;;;;;30.02;17.15;;;;;;;;;;5019372;28;20121;-84
2023/03/18 03:06:40;;;;;;;30.80;16.17;;;;;;;;;;5034785;28;20128;-85
2023/03/18 03:09:07;;;;;;;27.98;15.95;;;;;;;;;;5040816;28;20037;-84
2023/03/18 03:11:33;;;;;;;27.77;16.33;;;;;;;;;;5040665;28;20428;-84
2023/03/18 03:13:59;;;;;;;28.40;16.90;;;;;;;;;;5039741;28;20117;-85
2023/03/18 03:16:25;;;;;;;25.90;16.27;;;;;;;;;;5040719;28;20068;-85
2023/03/18 03:18:51;;;;;;;31.80;15.88;;;;;;;;;;5039519;28;20041;-85
2023/03/18 03:21:18;;;;;;;28.35;14.50;;;;;;;;;;5040667;28;20414;-85
2023/03/18 03:23:44;;;;;;;25.48;14.25;;;;;;;;;;5040439;28;20048;-85
2023/03/18 03:26:11;;;;;;;26.88;13.73;;;;;;;;;;5040902;28;20021;-84
2023/03/18 03:28:37;;;;;;;29.38;14.48;;;;;;;;;;5039351;28;20080;-84
2023/03/18 03:31:03;;;;;;;21.85;12.85;;;;;;;;;;5040353;28;20116;-84
2023/03/18 03:33:29;;;;;;;23.83;12.60;;;;;;;;;;5040392;28;20040;-84
2023/03/18 03:35:56;;;;;;;22.42;12.05;;;;;;;;;;5040481;28;20026;-84
2023/03/18 03:38:23;;;;;;;22.40;11.95;;;;;;;;;;5040159;28;20030;-84
2023/03/18 03:40:50;;;;;;;20.80;11.60;;;;;;;;;;5039098;28;20017;-84
2023/03/18 03:43:16;;;;;;;20.33;11.43;;;;;;;;;;5038846;28;20072;-85
2023/03/18 03:45:43;;;;;;;20.23;11.55;;;;;;;;;;5040296;28;20025;-84
2023/03/18 03:48:10;;;;;;;20.42;12.25;;;;;;;;;;5040399;28;20041;-84
2023/03/18 03:50:36;;;;;;;20.48;11.63;;;;;;;;;;5039934;28;20076;-84
2023/03/18 03:53:03;;;;;;;19.88;11.77;;;;;;;;;;5039896;28;20021;-84
2023/03/18 03:55:29;;;;;;;22.55;11.80;;;;;;;;;;5040175;28;20029;-84
2023/03/18 03:57:55;;;;;;;19.63;11.68;;;;;;;;;;5039837;28;20025;-84
2023/03/18 04:00:22;;;;;;;31.80;20.02;;;;;;;;;;5038802;28;20068;-85
2023/03/18 04:02:58;;;;;;;37.50;25.27;;;;;;;;;;5039869;28;20032;-84
2023/03/18 04:05:25;;;;;;;32.28;20.42;;;;;;;;;;5039616;28;20063;-84
2023/03/18 04:07:51;;;;;;;454.35;170.85;;;;;;;;;;5039901;28;20312;-84
2023/03/18 04:10:19;;;;;;;305.85;125.85;;;;;;;;;;5039962;28;20026;-84
2023/03/18 04:12:45;;;;;;;218.20;101.03;;;;;;;;;;5038389;28;20132;-84
2023/03/18 04:15:12;;;;;;;139.10;76.60;;;;;;;;;;5039757;28;20048;-83
2023/03/18 04:17:39;;;;;;;95.70;49.85;;;;;;;;;;5039497;28;20017;-84
2023/03/18 04:20:05;;;;;;;73.60;39.15;;;;;;;;;;5020551;28;20058;-83
2023/03/18 04:22:32;;;;;;;67.15;34.33;;;;;;;;;;5039388;28;20424;-84
2023/03/18 04:24:58;;;;;;;85.22;31.67;;;;;;;;;;5039481;28;20048;-84
2023/03/18 04:27:25;;;;;;;118.43;45.97;;;;;;;;;;5038439;28;20128;-84
2023/03/18 04:29:51;;;;;;;465.02;130.80;;;;;;;;;;5039648;28;20030;-85
2023/03/18 04:32:17;;;;;;;967.55;292.45;;;;;;;;;;5039037;28;20051;-84
2023/03/18 04:34:43;;;;;;;1017.55;276.73;;;;;;;;;;5038843;28;20029;-85
2023/03/18 04:37:10;;;;;;;1079.07;288.08;;;;;;;;;;5039425;28;20052;-85
2023/03/18 04:39:36;;;;;;;542.03;131.32;;;;;;;;;;5039037;28;20092;-85
2023/03/18 04:42:02;;;;;;;188.30;47.97;;;;;;;;;;5039116;28;20018;-85
2023/03/18 04:44:28;;;;;;;374.92;112.55;;;;;;;;;;5038068;28;20025;-85
2023/03/18 04:46:54;;;;;;;439.88;149.38;;;;;;;;;;5038780;28;20021;-84
2023/03/18 04:49:21;;;;;;;528.03;139.35;;;;;;;;;;5038882;28;20026;-84
2023/03/18 04:51:47;;;;;;;304.00;71.68;;;;;;;;;;5038889;28;20057;-85
2023/03/18 04:54:13;;;;;;;470.88;104.47;;;;;;;;;;5037838;28;20042;-85
2023/03/18 04:56:39;;;;;;;267.65;60.08;;;;;;;;;;5038808;28;20025;-84
2023/03/18 04:59:05;;;;;;;388.85;90.18;;;;;;;;;;5037663;28;20041;-84
2023/03/18 05:01:32;;;;;;;385.88;85.15;;;;;;;;;;5038973;28;20052;-85
2023/03/18 05:04:17;;;;;;;339.83;78.63;;;;;;;;;;5037648;28;20029;-85
2023/03/18 05:06:43;;;;;;;518.08;138.25;;;;;;;;;;5038453;28;20400;-85
2023/03/18 05:09:11;;;;;;;600.10;160.68;;;;;;;;;;5038868;28;20029;-85
2023/03/18 05:11:37;;;;;;;383.38;96.43;;;;;;;;;;5037582;28;20033;-86
2023/03/18 05:14:03;;;;;;;330.80;99.88;;;;;;;;;;5037615;28;20033;-87
2023/03/18 05:16:29;;;;;;;142.15;52.35;;;;;;;;;;5038356;28;20017;-86
2023/03/18 05:18:56;;;;;;;102.10;41.13;;;;;;;;;;5038345;28;20392;-86
2023/03/18 05:21:22;;;;;;;131.90;48.65;;;;;;;;;;5037434;28;20060;-86
2023/03/18 05:23:48;;;;;;;108.70;40.67;;;;;;;;;;5038414;28;20033;-86
2023/03/18 05:26:15;;;;;;;104.75;40.10;;;;;;;;;;5038695;28;20215;-87
2023/03/18 05:28:42;;;;;;;86.65;35.20;;;;;;;;;;5037181;28;20034;-86
2023/03/18 05:31:08;;;;;;;147.73;57.63;;;;;;;;;;5037459;28;20396;-87
2023/03/18 05:36:51;;;;;;;157.73;54.10;;;;;;;;;;5038486;28;20041;-85
2023/03/18 05:39:17;;;;;;;109.82;41.15;;;;;;;;;;5038175;28;20036;-85
2023/03/18 05:41:43;;;;;;;168.00;67.88;;;;;;;;;;5036852;28;20037;-85
2023/03/18 05:44:09;;;;;;;182.70;66.28;;;;;;;;;;5036549;28;20083;-84
2023/03/18 05:46:35;;;;;;;181.20;69.03;;;;;;;;;;5037712;28;20021;-85
2023/03/18 05:49:01;;;;;;;121.10;51.88;;;;;;;;;;5038088;28;20049;-84
2023/03/18 05:51:28;;;;;;;96.18;42.13;;;;;;;;;;5037743;28;20025;-84
2023/03/18 05:53:54;;;;;;;60.30;27.90;;;;;;;;;;5037751;28;20036;-85
2023/03/18 05:56:20;;;;;;;60.55;29.27;;;;;;;;;;5037086;28;20026;-85
2023/03/18 05:58:46;;;;;;;57.28;27.25;;;;;;;;;;5038116;28;20056;-84
2023/03/18 06:01:13;;;;;;;37.70;19.90;;;;;;;;;;5037682;28;20022;-84
2023/03/18 06:03:58;;;;;;;36.30;19.30;;;;;;;;;;5036244;28;20025;-85
2023/03/18 06:06:24;;;;;;;31.13;17.52;;;;;;;;;;5037296;28;20029;-85
2023/03/18 06:08:51;;;;;;;30.10;17.33;;;;;;;;;;5037721;28;20135;-85
2023/03/18 06:11:17;;;;;;;30.92;18.02;;;;;;;;;;5037631;28;20038;-85
2023/03/18 06:13:44;;;;;;;68.50;35.80;;;;;;;;;;5037916;28;20026;-85
2023/03/18 06:16:10;;;;;;;62.40;36.40;;;;;;;;;;5037349;28;20033;-85
2023/03/18 06:18:36;;;;;;;36.33;21.83;;;;;;;;;;5037384;28;20035;-85
2023/03/18 06:21:03;;;;;;;26.65;15.52;;;;;;;;;;5037309;28;20041;-84
2023/03/18 06:23:31;;;;;;;21.25;14.50;;;;;;;;;;5027788;28;20056;-85
2023/03/18 06:25:57;;;;;;;20.02;13.25;;;;;;;;;;5017946;28;20105;-84
2023/03/18 06:28:23;;;;;;;23.13;14.10;;;;;;;;;;5016595;28;20073;-84
2023/03/18 06:30:49;;;;;;;19.38;12.98;;;;;;;;;;5020235;28;20026;-85
2023/03/18 06:33:15;;;;;;;24.48;15.65;;;;;;;;;;5021809;28;20030;-85
2023/03/18 06:35:41;;;;;;;25.75;15.35;;;;;;;;;;5035016;28;20037;-85
2023/03/18 06:38:09;;;;;;;46.80;25.80;;;;;;;;;;5041585;28;20029;-85
2023/03/18 06:40:35;;;;;;;44.53;28.40;;;;;;;;;;5041337;28;20470;-87
2023/03/18 06:43:02;;;;;;;42.72;25.73;;;;;;;;;;5040971;28;20029;-86
2023/03/18 06:45:28;;;;;;;57.78;28.88;;;;;;;;;;5027975;28;20030;-85
2023/03/18 06:47:54;;;;;;;39.83;22.90;;;;;;;;;;5041208;28;20022;-84
2023/03/18 06:50:21;;;;;;;39.67;23.25;;;;;;;;;;5041335;28;20033;-85
2023/03/18 06:52:48;;;;;;;27.38;17.98;;;;;;;;;;5040720;28;20141;-86
2023/03/18 06:55:14;;;;;;;19.30;11.80;;;;;;;;;;5041500;28;20100;-84
2023/03/18 06:57:40;;;;;;;25.27;13.52;;;;;;;;;;5040024;28;20018;-85
2023/03/18 07:00:07;;;;;;;28.95;15.82;;;;;;;;;;5039474;28;20037;-83
2023/03/18 07:02:35;;;;;;;34.55;17.60;;;;;;;;;;5040858;28;20036;-82
2023/03/18 07:05:03;;;;;;;28.52;16.30;;;;;;;;;;5039193;28;20104;-83
2023/03/18 07:07:29;;;;;;;27.13;14.40;;;;;;;;;;5039486;28;20060;-85
2023/03/18 07:09:55;;;;;;;25.98;13.10;;;;;;;;;;5040813;28;20041;-85
2023/03/18 07:12:21;;;;;;;45.95;18.50;;;;;;;;;;5041158;28;20025;-85
2023/03/18 07:14:47;;;;;;;30.67;14.68;;;;;;;;;;5040574;28;20116;-85
2023/03/18 07:17:13;;;;;;;39.50;15.75;;;;;;;;;;5039918;28;20036;-84
2023/03/18 07:22:44;;;;;;;38.38;15.38;;;;;;;;;;5036022;28;20064;-84
2023/03/18 07:25:10;;;;;;;32.83;14.38;;;;;;;;;;5040971;28;20028;-85
2023/03/18 07:27:36;;;;;;;22.17;13.13;;;;;;;;;;5040382;28;20327;-83
2023/03/18 07:30:02;;;;;;;21.90;13.18;;;;;;;;;;5040409;28;20033;-83
2023/03/18 07:32:31;;;;;;;18.10;12.27;;;;;;;;;;5037715;28;20047;-84
2023/03/18 07:34:58;;;;;;;18.05;11.65;;;;;;;;;;5038932;28;20088;-84
2023/03/18 07:37:24;;;;;;;18.42;12.40;;;;;;;;;;5029384;28;20032;-84
2023/03/18 07:39:51;;;;;;;22.13;13.23;;;;;;;;;;5038205;28;20040;-84
2023/03/18 07:42:18;;;;;;;21.58;16.42;;;;;;;;;;5040258;28;20026;-84
2023/03/18 07:44:44;;;;;;;19.25;12.23;;;;;;;;;;5040389;28;20319;-84
2023/03/18 07:47:10;;;;;;;28.80;14.02;;;;;;;;;;5039962;28;20018;-84
2023/03/18 07:49:55;;;;;;;24.10;14.63;;;;;;;;;;5038759;28;20040;-84
2023/03/18 07:52:22;;;;;;;16.75;12.13;;;;;;;;;;5040328;28;20025;-83
2023/03/18 07:54:48;;;;;;;20.88;12.85;;;;;;;;;;5040177;28;20052;-83
2023/03/18 07:57:14;;;;;;;26.80;14.77;;;;;;;;;;5040200;28;20021;-84
2023/03/18 07:59:40;;;;;;;19.95;12.98;;;;;;;;;;5038752;28;20056;-84
2023/03/18 08:02:07;;;;;;;36.60;16.25;;;;;;;;;;5039512;28;20108;-84
2023/03/18 08:04:34;;;;;;;29.25;15.93;;;;;;;;;;5039657;28;20022;-84
2023/03/18 08:07:01;;;;;;;22.63;14.20;;;;;;;;;;5039713;28;20026;-83
2023/03/18 08:09:27;;;;;;;27.10;16.33;;;;;;;;;;5038367;28;20045;-87
2023/03/18 08:11:54;;;;;;;20.75;12.95;;;;;;;;;;5038508;28;20041;-83
2023/03/18 08:14:20;;;;;;;19.13;13.60;;;;;;;;;;5038031;28;20424;-82
2023/03/18 08:16:46;;;;;;;19.75;11.30;;;;;;;;;;5039609;28;20029;-82
2023/03/18 08:19:12;;;;;;;20.23;11.82;;;;;;;;;;5038844;28;20033;-83
2023/03/18 08:21:38;;;;;;;16.23;9.88;;;;;;;;;;5038879;28;20053;-84
2023/03/18 08:24:05;;;;;;;25.27;17.55;;;;;;;;;;5039401;28;20064;-82
2023/03/18 08:26:31;;;;;;;18.90;13.20;;;;;;;;;;5039345;28;20025;-82
2023/03/18 08:28:57;;;;;;;107.90;35.25;;;;;;;;;;5037791;28;20125;-82
2023/03/18 08:31:24;;;;;;;20.17;9.55;;;;;;;;;;5037626;28;20037;-82
2023/03/18 08:33:52;;;;;;;45.67;33.75;;;;;;;;;;5038602;28;20021;-82
2023/03/18 08:36:19;;;;;;;33.00;20.25;;;;;;;;;;5038761;28;20320;-82
2023/03/18 08:38:45;;;;;;;29.15;19.67;;;;;;;;;;5037767;28;20036;-82
2023/03/18 08:41:11;;;;;;;24.95;18.35;;;;;;;;;;5038621;28;20045;-81
2023/03/18 08:43:38;;;;;;;32.15;23.88;;;;;;;;;;5039015;28;20044;-82
2023/03/18 08:46:04;;;;;;;34.17;18.25;;;;;;;;;;5038534;28;20045;-82
2023/03/18 08:48:31;;;;;;;31.95;22.83;;;;;;;;;;5038219;28;20100;-81
2023/03/18 08:50:57;;;;;;;23.00;17.35;;;;;;;;;;5038558;28;20356;-81
2023/03/18 08:53:24;;;;;;;47.80;27.83;;;;;;;;;;5035455;28;20403;-81
2023/03/18 08:55:50;;;;;;;16.50;10.52;;;;;;;;;;5034692;28;20030;-81
2023/03/18 08:58:17;;;;;;;27.15;21.20;;;;;;;;;;5038264;28;20034;-81
2023/03/18 09:00:43;;;;;;;20.33;13.55;;;;;;;;;;5038128;28;20021;-81
2023/03/18 09:03:10;;;;;;;24.92;15.90;;;;;;;;;;5038388;28;20048;-82
2023/03/18 09:05:37;;;;;;;26.42;17.02;;;;;;;;;;5038128;28;20171;-82
2023/03/18 09:08:04;;;;;;;23.20;16.30;;;;;;;;;;5038644;28;20025;-81
2023/03/18 09:10:30;;;;;;;16.67;9.45;;;;;;;;;;5038183;28;20369;-82
2023/03/18 09:12:56;;;;;;;11.52;8.40;;;;;;;;;;5038569;28;20037;-82
2023/03/18 09:15:22;;;;;;;23.90;18.50;;;;;;;;;;5038446;28;20400;-82
2023/03/18 09:17:48;;;;;;;13.60;8.40;;;;;;;;;;5037628;28;20053;-81
2023/03/18 09:23:18;;;;;;;11.95;7.38;;;;;;;;;;5020828;28;20053;-82
2023/03/18 09:25:45;;;;;;;12.48;7.57;;;;;;;;;;5037432;28;20040;-85
2023/03/18 09:28:12;;;;;;;14.07;7.93;;;;;;;;;;5035193;28;20221;-81
2023/03/18 09:30:39;;;;;;;15.00;8.10;;;;;;;;;;5036194;28;20104;-82
2023/03/18 09:33:05;;;;;;;10.18;6.18;;;;;;;;;;5037170;28;20037;-82
2023/03/18 09:35:31;;;;;;;12.93;6.80;;;;;;;;;;5037328;28;20037;-81
2023/03/18 09:37:58;;;;;;;9.73;6.60;;;;;;;;;;5036546;28;20029;-82
2023/03/18 09:40:24;;;;;;;14.57;6.63;;;;;;;;;;5037258;28;20485;-81
2023/03/18 09:42:59;;;;;;;9.02;6.28;;;;;;;;;;5035470;28;20072;-81
2023/03/18 09:45:45;;;;;;;10.75;6.88;;;;;;;;;;5037113;28;20447;-80
2023/03/18 09:48:30;;;;;;;10.68;7.13;;;;;;;;;;5031849;28;20087;-82
2023/03/18 09:51:16;;;;;;;9.75;6.65;;;;;;;;;;5026369;28;20064;-81
2023/03/18 09:53:45;;;;;;;9.38;6.38;;;;;;;;;;5034768;28;20025;-81
2023/03/18 09:56:15;;;;;;;9.48;6.07;;;;;;;;;;5026733;28;20045;-81
2023/03/18 09:58:58;;;;;;;10.63;6.22;;;;;;;;;;5028189;28;20046;-82
2023/03/18 10:01:25;;;;;;;12.48;6.15;;;;;;;;;;5037052;28;20040;-83
2023/03/18 10:04:02;;;;;;;10.57;6.60;;;;;;;;;;5030540;28;20026;-81
2023/03/18 10:06:28;;;;;;;10.02;6.20;;;;;;;;;;5026040;28;20041;-82
2023/03/18 10:09:00;;;;;;;12.65;6.80;;;;;;;;;;5030189;28;20029;-82
2023/03/18 10:11:43;;;;;;;15.77;6.72;;;;;;;;;;5031217;28;20033;-80
2023/03/18 10:14:10;;;;;;;10.73;6.97;;;;;;;;;;5018834;28;20128;-82
2023/03/18 10:16:48;;;;;;;14.15;6.18;;;;;;;;;;5026339;28;20061;-82
2023/03/18 10:19:14;;;;;;;12.07;6.18;;;;;;;;;;5036733;28;20099;-81
2023/03/18 10:21:48;;;;;;;10.60;6.30;;;;;;;;;;5034048;28;20033;-82
2023/03/18 10:24:19;;;;;;;12.32;7.35;;;;;;;;;;5036319;28;20049;-81
2023/03/18 10:26:51;;;;;;;11.07;6.65;;;;;;;;;;5037249;28;20029;-82
2023/03/18 10:29:17;;;;;;;11.15;6.70;;;;;;;;;;5030094;28;20042;-82
2023/03/18 10:31:44;;;;;;;14.25;9.15;;;;;;;;;;5026684;28;20030;-82
2023/03/18 10:34:13;;;;;;;19.08;11.38;;;;;;;;;;5037222;28;20076;-81
2023/03/18 10:36:39;;;;;;;34.17;19.25;;;;;;;;;;5034976;28;20436;-84
2023/03/18 10:39:10;;;;;;;28.40;14.82;;;;;;;;;;5031311;28;20038;-82
2023/03/18 10:41:37;;;;;;;19.27;10.63;;;;;;;;;;5034500;28;20041;-81
2023/03/18 10:44:13;;;;;;;23.00;10.82;;;;;;;;;;5036767;28;20049;-81
2023/03/18 10:46:39;;;;;;;15.40;9.10;;;;;;;;;;5036050;28;20025;-80
2023/03/18 10:49:09;;;;;;;19.00;9.88;;;;;;;;;;5035308;28;20085;-81
2023/03/18 10:51:35;;;;;;;20.38;8.25;;;;;;;;;;5032823;28;20022;-81
2023/03/18 10:54:06;;;;;;;17.23;6.18;;;;;;;;;;5018645;28;20408;-80
2023/03/18 10:56:32;;;;;;;18.27;6.40;;;;;;;;;;5030939;28;20037;-80
2023/03/18 10:58:59;;;;;;;8.40;6.00;;;;;;;;;;5032208;28;20340;-80
2023/03/18 11:01:27;;;;;;;14.05;7.75;;;;;;;;;;5031454;28;20022;-80
2023/03/18 11:03:58;;;;;;;7.63;5.43;;;;;;;;;;5036249;28;20411;-80
2023/03/18 11:06:30;;;;;;;11.65;6.97;;;;;;;;;;5036562;28;20032;-82
2023/03/18 11:09:01;;;;;;;12.25;7.10;;;;;;;;;;5032780;28;20478;-81
2023/03/18 11:11:31;;;;;;;63.60;38.83;;;;;;;;;;5036035;28;20056;-82
2023/03/18 11:13:58;;;;;;;11.98;6.43;;;;;;;;;;5034168;28;20091;-81
2023/03/18 11:16:37;;;;;;;14.82;5.40;;;;;;;;;;5037040;28;20116;-81
2023/03/18 11:19:26;;;;;;;9.82;6.38;;;;;;;;;;5037439;28;20025;-81
2023/03/18 11:22:00;;;;;;;13.48;6.95;;;;;;;;;;5038607;28;20029;-80
2023/03/18 11:27:25;;;;;;;8.85;5.80;;;;;;;;;;4997109;28;20093;-81
2023/03/18 11:29:56;;;;;;;8.00;5.57;;;;;;;;;;4992848;28;20235;-80
2023/03/18 11:32:29;;;;;;;9.15;5.60;;;;;;;;;;4996587;28;20049;-81
2023/03/18 11:34:56;;;;;;;11.68;5.63;;;;;;;;;;4998016;28;20046;-82
2023/03/18 11:37:26;;;;;;;9.18;5.72;;;;;;;;;;4998706;28;20042;-80
2023/03/18 11:39:52;;;;;;;11.32;6.68;;;;;;;;;;4982137;28;20141;-81
2023/03/18 11:42:20;;;;;;;8.05;5.07;;;;;;;;;;4998412;28;20341;-81
2023/03/18 11:44:48;;;;;;;8.15;4.80;;;;;;;;;;4998516;28;20043;-81
2023/03/18 11:47:15;;;;;;;8.65;4.93;;;;;;;;;;4998357;28;20033;-81
2023/03/18 11:49:50;;;;;;;5.07;3.90;;;;;;;;;;4994333;28;20030;-80
2023/03/18 11:52:39;;;;;;;8.90;4.53;;;;;;;;;;4992165;28;20817;-82
2023/03/18 11:55:09;;;;;;;9.02;5.93;;;;;;;;;;4989209;28;20029;-82
2023/03/18 11:57:35;;;;;;;8.80;5.70;;;;;;;;;;4997896;28;20372;-82
2023/03/18 12:00:33;;;;;;;7.57;5.30;;;;;;;;;;4998461;28;20118;-82
2023/03/18 12:03:02;;;;;;;7.63;5.18;;;;;;;;;;4932611;28;20042;-81
2023/03/18 12:05:31;;;;;;;9.30;5.93;;;;;;;;;;4977964;28;20031;-80
2023/03/18 12:08:02;;;;;;;8.80;5.00;;;;;;;;;;4969412;28;20050;-81
2023/03/18 12:10:36;;;;;;;13.95;6.50;;;;;;;;;;4971042;28;20038;-82
2023/03/18 12:13:02;;;;;;;10.52;5.38;;;;;;;;;;4978337;28;20461;-82
2023/03/18 12:15:32;;;;;;;8.88;5.60;;;;;;;;;;4992972;28;20033;-82
2023/03/18 12:18:08;;;;;;;6.23;4.73;;;;;;;;;;4978632;28;20038;-82
2023/03/18 12:20:43;;;;;;;6.85;4.20;;;;;;;;;;4976111;28;20130;-82
2023/03/18 12:23:12;;;;;;;7.20;4.85;;;;;;;;;;4958703;28;20349;-81
2023/03/18 12:25:51;;;;;;;9.00;4.38;;;;;;;;;;4978020;28;20058;-82
2023/03/18 12:28:17;;;;;;;12.05;6.15;;;;;;;;;;4967367;28;20030;-82
2023/03/18 12:30:52;;;;;;;5.20;3.33;;;;;;;;;;4978347;28;20037;-81
2023/03/18 12:33:18;;;;;;;17.27;7.10;;;;;;;;;;4977619;28;20039;-81
2023/03/18 12:35:59;;;;;;;8.93;5.35;;;;;;;;;;4969725;28;20332;-81
2023/03/18 12:38:44;;;;;;;14.55;5.70;;;;;;;;;;4995111;28;20125;-81
2023/03/18 12:41:13;;;;;;;12.40;4.43;;;;;;;;;;5038233;28;20030;-82
2023/03/18 12:43:59;;;;;;;13.18;7.00;;;;;;;;;;5037523;28;20335;-82
2023/03/18 12:46:33;;;;;;;13.02;6.32;;;;;;;;;;5019229;28;20026;-82
2023/03/18 12:49:15;;;;;;;15.85;5.50;;;;;;;;;;5017461;28;20184;-82
2023/03/18 12:51:51;;;;;;;8.90;5.05;;;;;;;;;;5024241;28;20029;-81
2023/03/18 12:54:37;;;;;;;14.55;8.38;;;;;;;;;;5029390;28;20037;-79
2023/03/18 12:57:20;;;;;;;8.15;3.53;;;;;;;;;;5034207;28;20044;-81
2023/03/18 12:59:56;;;;;;;4.78;3.35;;;;;;;;;;5027936;28;20021;-80
2023/03/18 13:02:28;;;;;;;10.90;6.63;;;;;;;;;;5036934;28;20037;-81
2023/03/18 13:04:59;;;;;;;6.00;4.82;;;;;;;;;;5036574;28;20067;-81
2023/03/18 13:07:46;;;;;;;7.05;3.95;;;;;;;;;;5037820;28;20030;-81
2023/03/18 13:10:22;;;;;;;6.15;3.92;;;;;;;;;;5035008;28;20037;-81
2023/03/18 13:12:51;;;;;;;7.68;3.92;;;;;;;;;;5038051;28;20074;-81
2023/03/18 13:15:36;;;;;;;10.55;5.53;;;;;;;;;;5031674;28;20030;-82
2023/03/18 13:18:11;;;;;;;10.85;5.65;;;;;;;;;;5027054;28;20022;-81
2023/03/18 13:20:39;;;;;;;9.60;6.22;;;;;;;;;;5036682;28;20032;-80
2023/03/18 13:23:05;;;;;;;10.23;5.90;;;;;;;;;;5037014;28;20041;-81
2023/03/18 13:25:41;;;;;;;6.40;3.53;;;;;;;;;;5036290;28;20022;-81
2023/03/18 13:28:07;;;;;;;9.07;4.97;;;;;;;;;;5037642;28;20105;-82
2023/03/18 13:30:33;;;;;;;5.60;3.90;;;;;;;;;;5052069;28;20017;-81
2023/03/18 13:32:59;;;;;;;8.15;5.22;;;;;;;;;;5036112;28;20033;-81
2023/03/18 13:35:45;;;;;;;11.40;7.50;;;;;;;;;;5036086;28;20071;-82
2023/03/18 13:38:17;;;;;;;6.03;3.67;;;;;;;;;;5036183;28;20021;-82
2023/03/18 13:40:59;;;;;;;10.98;3.78;;;;;;;;;;5036335;28;20029;-81
2023/03/18 13:43:27;;;;;;;7.97;3.85;;;;;;;;;;5037204;28;20427;-82
2023/03/18 13:45:54;;;;;;;4.18;2.90;;;;;;;;;;5037467;28;20034;-81
2023/03/18 13:48:21;;;;;;;4.03;3.63;;;;;;;;;;5036220;28;20037;-81
2023/03/18 13:50:50;;;;;;;5.75;3.75;;;;;;;;;;5036787;28;20438;-81
2023/03/18 13:53:30;;;;;;;5.03;3.92;;;;;;;;;;5024375;28;20044;-83
2023/03/18 13:55:56;;;;;;;6.65;3.67;;;;;;;;;;5037159;28;20053;-82
2023/03/18 13:58:32;;;;;;;7.80;3.60;;;;;;;;;;5037185;28;20068;-83
2023/03/18 14:01:11;;;;;;;7.47;3.70;;;;;;;;;;5035872;28;20033;-83
2023/03/18 14:03:37;;;;;;;10.05;4.45;;;;;;;;;;5037503;28;20021;-83
2023/03/18 14:06:31;;;;;;;17.20;6.28;;;;;;;;;;5037776;28;20044;-82
2023/03/18 14:08:57;;;;;;;7.82;3.65;;;;;;;;;;5036675;28;20025;-81
2023/03/18 14:11:23;;;;;;;8.05;4.30;;;;;;;;;;5030569;28;20053;-80
2023/03/18 14:13:50;;;;;;;5.82;3.05;;;;;;;;;;5017411;28;20026;-81
2023/03/18 14:16:36;;;;;;;6.93;3.42;;;;;;;;;;5020839;28;20029;-80
2023/03/18 14:19:05;;;;;;;12.93;3.78;;;;;;;;;;4961202;28;20054;-81
2023/03/18 14:21:32;;;;;;;7.82;3.95;;;;;;;;;;4975805;28;20035;-80
2023/03/18 14:24:03;;;;;;;8.90;3.70;;;;;;;;;;4975787;28;20342;-81
2023/03/18 14:26:30;;;;;;;7.68;3.00;;;;;;;;;;4952193;29;20031;-80
2023/03/18 14:29:15;;;;;;;6.40;3.75;;;;;;;;;;4962716;28;20160;-80
2023/03/18 14:31:42;;;;;;;8.57;3.60;;;;;;;;;;4969730;28;20562;-80
2023/03/18 14:34:16;;;;;;;15.40;8.25;;;;;;;;;;4982344;28;20039;-81
2023/03/18 14:39:50;;;;;;;11.32;7.32;;;;;;;;;;4976030;28;20053;-81
2023/03/18 14:42:19;;;;;;;10.38;4.20;;;;;;;;;;4959714;28;20049;-81
2023/03/18 14:44:47;;;;;;;15.25;6.25;;;;;;;;;;4959599;28;20031;-81
2023/03/18 14:47:25;;;;;;;7.72;5.18;;;;;;;;;;4975703;28;20027;-81
2023/03/18 14:49:53;;;;;;;9.18;4.10;;;;;;;;;;4972081;28;20047;-81
2023/03/18 14:52:19;;;;;;;10.50;4.43;;;;;;;;;;4980015;28;20038;-82
2023/03/18 14:54:46;;;;;;;6.05;4.10;;;;;;;;;;4963009;28;20034;-81
2023/03/18 14:57:13;;;;;;;8.13;4.60;;;;;;;;;;5037763;28;20124;-81
2023/03/18 14:59:39;;;;;;;8.00;4.43;;;;;;;;;;5040295;28;20036;-81